Anacoco, Louisiana
Current Conditions -  °F | °C
As of 7:40 AM on Sunday 21 Dec 2014 (Local Time) from KAQV Reporting Station
Haze Haze  
Wind Chill:   Ceiling: Unl
Heat Index:   Visibility: 3mi
Dew Point:   Wind: 0mph
Humidity: 93%   Direction: NA
Pressure: 30.13"   Gusts: NA
Location:  31.25°N, 93.34°W
Report Text: KAQV 211340Z AUTO 00000KT 3SM BR FEW002 02/01 A3013 RMK AO2 T00220011 $
Loading
Personal Weather Stations






























Interactive Weather Map New forecast layout! Learn more

10-Day Weather Forecast

Advertisements
Track Severe Weather on mobile